createdAt,value
2019-03-31T00:02:32.687Z,16.80
2019-03-31T00:10:21.999Z,17.10
2019-03-31T00:13:00.220Z,17.00
2019-03-31T00:15:38.515Z,17.00
2019-03-31T00:18:16.943Z,17.10
2019-03-31T00:26:05.969Z,18.40
2019-03-31T00:31:22.676Z,17.90
2019-03-31T00:34:01.043Z,17.70
2019-03-31T00:36:39.189Z,17.30
2019-03-31T00:39:17.404Z,17.50
2019-03-31T00:41:55.549Z,17.80
2019-03-31T00:44:34.199Z,17.80
2019-03-31T00:47:12.471Z,18.00
2019-03-31T00:49:50.713Z,18.20
2019-03-31T00:52:29.095Z,18.40
2019-03-31T00:55:07.337Z,18.80
2019-03-31T01:00:40.212Z,18.10
2019-03-31T01:03:18.659Z,18.20
2019-03-31T01:05:57.056Z,18.30
2019-03-31T01:08:37.380Z,18.30
2019-03-31T01:11:26.381Z,18.40
2019-03-31T01:14:04.697Z,18.30
2019-03-31T01:16:42.894Z,19.20
2019-03-31T01:19:21.821Z,18.60
2019-03-31T01:22:00.340Z,19.30
2019-03-31T01:24:38.615Z,18.50
2019-03-31T01:27:17.409Z,18.70
2019-03-31T01:29:55.767Z,18.90
2019-03-31T01:32:35.688Z,18.80
2019-03-31T01:35:14.571Z,19.40
2019-03-31T01:37:52.938Z,19.80
2019-03-31T01:40:31.108Z,19.70
2019-03-31T01:43:09.752Z,19.50
2019-03-31T01:45:48.392Z,19.30
2019-03-31T01:48:28.219Z,19.20
2019-03-31T01:51:07.095Z,19.00
2019-03-31T01:56:20.789Z,19.50
2019-03-31T01:59:01.888Z,19.50
2019-03-31T02:01:40.253Z,19.60
2019-03-31T02:06:53.936Z,19.30
2019-03-31T02:09:32.198Z,19.50
2019-03-31T02:12:10.776Z,19.60
2019-03-31T02:14:49.051Z,19.70
2019-03-31T02:20:04.016Z,20.20
2019-03-31T02:22:42.315Z,19.80
2019-03-31T02:25:20.558Z,20.20
2019-03-31T02:27:58.694Z,20.30
2019-03-31T02:30:36.887Z,20.20
2019-03-31T02:33:15.094Z,20.80
2019-03-31T02:35:53.318Z,20.80
2019-03-31T02:38:31.530Z,20.50
2019-03-31T02:41:11.499Z,20.70
2019-03-31T02:43:49.757Z,20.70
2019-03-31T02:46:28.297Z,20.90
2019-03-31T02:49:06.355Z,20.90
2019-03-31T02:51:45.699Z,21.60
2019-03-31T02:54:24.063Z,21.20
2019-03-31T02:57:02.644Z,21.20
2019-03-31T02:59:41.429Z,21.20
2019-03-31T03:02:21.041Z,21.10
2019-03-31T03:05:17.648Z,21.30
2019-03-31T03:07:42.876Z,21.30
2019-03-31T03:10:21.413Z,21.40
2019-03-31T03:13:01.340Z,21.50
2019-03-31T03:15:41.496Z,22.00
2019-03-31T03:23:30.759Z,22.20
2019-03-31T03:26:11.588Z,22.20
2019-03-31T03:28:50.119Z,22.60
2019-03-31T03:31:28.325Z,22.80
2019-03-31T03:34:06.633Z,22.90
2019-03-31T03:36:44.975Z,23.00
2019-03-31T03:39:23.294Z,22.90
2019-03-31T03:42:01.532Z,22.80
2019-03-31T03:44:39.788Z,23.00
2019-03-31T03:47:18.192Z,23.10
2019-03-31T03:49:56.400Z,23.20
2019-03-31T03:52:34.631Z,23.20
2019-03-31T03:55:13.120Z,23.30
2019-03-31T03:57:51.355Z,23.20
2019-03-31T04:00:29.752Z,23.70
2019-03-31T04:03:07.976Z,23.90
2019-03-31T04:05:46.346Z,23.50
2019-03-31T04:08:24.920Z,23.40
2019-03-31T04:11:25.563Z,23.60
2019-03-31T04:14:05.712Z,23.40
2019-03-31T04:16:48.225Z,23.50
2019-03-31T04:19:26.430Z,23.80
2019-03-31T04:22:07.355Z,24.20
2019-03-31T04:24:45.516Z,24.20
2019-03-31T04:27:23.703Z,24.10
2019-03-31T04:30:02.023Z,24.10
2019-03-31T04:32:41.168Z,24.10
2019-03-31T04:35:19.426Z,24.00
2019-03-31T04:37:57.612Z,24.00
2019-03-31T04:40:35.821Z,24.00
2019-03-31T04:43:14.080Z,24.20
2019-03-31T04:45:52.525Z,23.70
2019-03-31T04:48:30.709Z,24.20
2019-03-31T04:51:09.995Z,24.10
2019-03-31T04:53:48.607Z,23.50
2019-03-31T04:56:26.851Z,24.00
2019-03-31T05:01:45.520Z,24.00
2019-03-31T05:04:24.195Z,24.20
2019-03-31T05:07:05.755Z,24.00
2019-03-31T05:09:44.149Z,24.30
2019-03-31T05:12:22.369Z,24.90
2019-03-31T05:15:02.531Z,24.90
2019-03-31T05:17:40.891Z,25.00
2019-03-31T05:20:19.053Z,25.10
2019-03-31T05:25:32.316Z,25.10
2019-03-31T05:28:11.053Z,25.30
2019-03-31T05:30:49.274Z,25.30
2019-03-31T05:38:37.998Z,24.80
2019-03-31T05:41:16.215Z,24.50
2019-03-31T05:44:05.103Z,24.30
2019-03-31T05:46:34.428Z,24.50
2019-03-31T05:49:12.663Z,24.40
2019-03-31T05:51:50.853Z,24.90
2019-03-31T05:54:29.030Z,25.10
2019-03-31T05:57:07.315Z,25.20
2019-03-31T05:59:45.483Z,25.10
2019-03-31T06:02:23.921Z,25.10
2019-03-31T06:05:02.106Z,24.70
2019-03-31T06:07:40.358Z,24.80
2019-03-31T06:10:18.699Z,24.70
2019-03-31T06:12:57.276Z,24.80
2019-03-31T06:15:35.530Z,25.10
2019-03-31T06:18:13.890Z,25.30
2019-03-31T06:26:02.915Z,25.50
2019-03-31T06:28:41.235Z,25.90
2019-03-31T06:31:19.513Z,25.80
2019-03-31T06:36:33.297Z,25.00
2019-03-31T06:39:12.798Z,25.30
2019-03-31T06:41:50.994Z,25.00
2019-03-31T06:44:29.227Z,24.90
2019-03-31T06:47:07.445Z,24.60
2019-03-31T06:49:45.715Z,24.70
2019-03-31T06:52:23.948Z,25.00
2019-03-31T06:55:02.112Z,25.10
2019-03-31T06:57:40.314Z,25.10
2019-03-31T07:00:19.224Z,25.10
2019-03-31T07:02:57.543Z,25.10
2019-03-31T07:08:11.097Z,23.70
2019-03-31T07:10:49.387Z,23.30
2019-03-31T07:16:04.007Z,23.30
2019-03-31T07:18:42.204Z,22.70
2019-03-31T07:21:20.320Z,22.60
2019-03-31T07:26:34.485Z,21.90
2019-03-31T07:29:13.031Z,22.10
2019-03-31T07:37:01.921Z,21.90
2019-03-31T07:39:40.075Z,21.60
2019-03-31T07:42:18.261Z,21.40
2019-03-31T07:47:31.924Z,21.50
2019-03-31T07:50:11.219Z,21.30
2019-03-31T07:52:49.575Z,21.30
2019-03-31T07:55:27.912Z,21.10
2019-03-31T08:00:42.687Z,21.30
2019-03-31T08:03:25.920Z,21.30
2019-03-31T08:06:04.204Z,21.30
2019-03-31T08:08:42.380Z,20.70
2019-03-31T08:11:21.563Z,20.50
2019-03-31T08:14:09.244Z,21.00
2019-03-31T08:16:47.763Z,20.80
2019-03-31T08:22:01.247Z,20.70
2019-03-31T08:30:01.451Z,20.50
2019-03-31T08:32:41.561Z,20.40
2019-03-31T08:35:20.997Z,20.60
2019-03-31T08:38:00.657Z,20.50
2019-03-31T08:40:39.076Z,20.50
2019-03-31T08:43:17.486Z,20.30
2019-03-31T08:45:55.830Z,20.20
2019-03-31T08:48:34.085Z,20.20
2019-03-31T08:51:12.451Z,20.30
2019-03-31T08:53:50.755Z,20.20
2019-03-31T08:56:29.104Z,20.30
2019-03-31T08:59:07.374Z,20.30
2019-03-31T09:01:46.628Z,20.20
2019-03-31T09:04:24.761Z,20.00
2019-03-31T09:07:03.145Z,20.00
2019-03-31T09:09:43.747Z,19.90
2019-03-31T09:12:22.269Z,19.90
2019-03-31T09:17:36.260Z,19.40
2019-03-31T09:20:16.143Z,21.40
2019-03-31T09:22:54.186Z,20.20
2019-03-31T09:25:33.635Z,19.80
2019-03-31T09:28:11.779Z,19.40
2019-03-31T09:30:50.004Z,19.70
2019-03-31T09:33:28.223Z,19.70
2019-03-31T09:36:15.975Z,19.80
2019-03-31T09:38:45.715Z,20.00
2019-03-31T09:41:24.197Z,19.80
2019-03-31T09:44:02.565Z,19.80
2019-03-31T09:46:40.768Z,19.70
2019-03-31T09:49:19.342Z,19.70
2019-03-31T09:51:57.827Z,19.60
2019-03-31T09:54:38.253Z,19.40
2019-03-31T09:57:21.818Z,19.50
2019-03-31T10:00:00.432Z,19.50
2019-03-31T10:02:38.863Z,19.30
2019-03-31T10:05:18.419Z,19.40
2019-03-31T10:07:56.899Z,19.40
2019-03-31T10:10:41.285Z,19.50
2019-03-31T10:13:19.495Z,19.60
2019-03-31T10:15:58.309Z,18.80
2019-03-31T10:18:37.634Z,19.10
2019-03-31T10:23:52.682Z,18.90
2019-03-31T10:26:32.266Z,19.00
2019-03-31T10:29:10.320Z,19.10
2019-03-31T10:31:48.819Z,19.00
2019-03-31T10:34:27.121Z,19.30
2019-03-31T10:37:05.727Z,19.20
2019-03-31T10:39:51.144Z,18.70
2019-03-31T10:42:29.693Z,19.40
2019-03-31T10:45:08.121Z,18.80
2019-03-31T10:50:25.192Z,18.90
2019-03-31T10:55:41.883Z,18.90
2019-03-31T10:58:20.136Z,18.60
2019-03-31T11:00:58.511Z,18.80
2019-03-31T11:03:38.899Z,18.80
2019-03-31T11:06:17.200Z,18.60
2019-03-31T11:08:55.679Z,18.60
2019-03-31T11:11:34.199Z,18.70
2019-03-31T11:14:12.630Z,18.60
2019-03-31T11:16:50.906Z,18.40
2019-03-31T11:19:29.288Z,18.70
2019-03-31T11:22:21.247Z,18.70
2019-03-31T11:24:59.546Z,18.60
2019-03-31T11:27:37.830Z,18.40
2019-03-31T11:30:16.952Z,18.50
2019-03-31T11:32:55.699Z,18.50
2019-03-31T11:35:33.892Z,18.80
2019-03-31T11:38:12.468Z,18.50
2019-03-31T11:40:50.922Z,17.90
2019-03-31T11:43:29.223Z,18.30
2019-03-31T11:46:07.379Z,18.40
2019-03-31T11:48:45.555Z,18.40
2019-03-31T11:51:23.854Z,18.30
2019-03-31T11:54:02.603Z,18.60
2019-03-31T11:56:41.348Z,18.40
2019-03-31T12:04:33.506Z,18.50
2019-03-31T12:07:11.968Z,18.10
2019-03-31T12:09:50.101Z,17.70
2019-03-31T12:12:28.156Z,18.50
2019-03-31T12:17:41.933Z,18.00
2019-03-31T12:20:20.420Z,17.40
2019-03-31T12:22:58.736Z,18.20
2019-03-31T12:25:38.573Z,18.30
2019-03-31T12:28:16.804Z,17.50
2019-03-31T12:30:54.966Z,17.40
2019-03-31T12:33:33.107Z,17.40
2019-03-31T12:36:12.104Z,18.20
2019-03-31T12:38:53.588Z,17.80
2019-03-31T12:44:04.753Z,17.70
2019-03-31T12:46:42.878Z,17.70
2019-03-31T12:49:20.989Z,17.20
2019-03-31T12:51:59.110Z,17.60
2019-03-31T12:54:37.242Z,17.70
2019-03-31T12:57:15.382Z,17.20
2019-03-31T12:59:53.737Z,17.80
2019-03-31T13:02:31.867Z,17.00
2019-03-31T13:05:10.139Z,17.60
2019-03-31T13:07:56.250Z,18.00
2019-03-31T13:10:27.494Z,17.00
2019-03-31T13:15:41.038Z,17.50
2019-03-31T13:18:19.852Z,17.70
2019-03-31T13:20:58.655Z,17.10
2019-03-31T13:23:37.155Z,17.50
2019-03-31T13:26:15.271Z,18.00
2019-03-31T13:28:53.421Z,17.10
2019-03-31T13:31:31.655Z,17.20
2019-03-31T13:36:46.828Z,17.80
2019-03-31T13:39:25.038Z,17.40
2019-03-31T13:42:03.325Z,17.60
2019-03-31T13:44:41.419Z,17.30
2019-03-31T13:47:21.462Z,17.30
2019-03-31T13:49:59.601Z,17.20
2019-03-31T13:52:37.826Z,17.20
2019-03-31T13:55:16.254Z,17.20
2019-03-31T13:57:54.890Z,17.20
2019-03-31T14:00:45.150Z,17.20
2019-03-31T14:03:23.463Z,17.20
2019-03-31T14:06:01.642Z,17.10
2019-03-31T14:08:39.876Z,17.00
2019-03-31T14:11:21.400Z,16.50
2019-03-31T14:13:57.234Z,17.50
2019-03-31T14:16:35.448Z,16.90
2019-03-31T14:19:13.663Z,16.40
2019-03-31T14:21:52.203Z,17.20
2019-03-31T14:24:30.461Z,17.10
2019-03-31T14:27:08.655Z,16.80
2019-03-31T14:29:46.870Z,17.20
2019-03-31T14:32:25.026Z,17.20
2019-03-31T14:35:03.294Z,17.30
2019-03-31T14:37:41.454Z,16.20
2019-03-31T14:42:55.156Z,16.40
2019-03-31T14:45:43.445Z,16.30
2019-03-31T14:48:21.581Z,16.40
2019-03-31T14:51:01.049Z,17.10
2019-03-31T14:53:40.343Z,16.20
2019-03-31T14:56:18.652Z,16.60
2019-03-31T14:58:56.837Z,16.80
2019-03-31T15:01:35.004Z,16.40
2019-03-31T15:04:13.119Z,16.20
2019-03-31T15:06:51.325Z,16.80
2019-03-31T15:09:29.443Z,16.30
2019-03-31T15:14:43.003Z,16.00
2019-03-31T15:17:21.138Z,16.20
2019-03-31T15:19:59.386Z,16.20
2019-03-31T15:25:13.136Z,16.00
2019-03-31T15:27:51.172Z,16.00
2019-03-31T15:30:29.416Z,16.30
2019-03-31T15:33:07.790Z,17.00
2019-03-31T15:35:45.980Z,16.50
2019-03-31T15:38:24.256Z,16.20
2019-03-31T15:41:20.609Z,16.70
2019-03-31T15:43:47.408Z,15.80
2019-03-31T15:46:25.588Z,16.30
2019-03-31T15:49:03.782Z,15.70
2019-03-31T15:51:41.927Z,16.70
2019-03-31T15:54:20.199Z,16.20
2019-03-31T15:56:58.348Z,15.60
2019-03-31T15:59:36.470Z,15.80
2019-03-31T16:02:14.650Z,16.30
2019-03-31T16:04:52.778Z,16.50
2019-03-31T16:07:31.007Z,15.90
2019-03-31T16:10:08.782Z,16.50
2019-03-31T16:15:23.214Z,16.70
2019-03-31T16:18:02.014Z,16.60
2019-03-31T16:20:39.591Z,16.40
2019-03-31T16:23:19.830Z,16.30
2019-03-31T16:26:00.147Z,16.60
2019-03-31T16:28:37.787Z,15.90
2019-03-31T16:31:17.469Z,16.50
2019-03-31T16:33:55.165Z,16.40
2019-03-31T16:39:09.604Z,15.70
2019-03-31T16:41:47.206Z,16.30
2019-03-31T16:44:24.666Z,16.40
2019-03-31T16:47:02.536Z,16.10
2019-03-31T16:49:40.201Z,16.40
2019-03-31T16:52:17.849Z,15.70
2019-03-31T16:54:55.444Z,16.00
2019-03-31T16:57:33.190Z,16.30
2019-03-31T17:00:11.174Z,16.00
2019-03-31T17:05:25.546Z,16.00
2019-03-31T17:08:03.404Z,16.00
2019-03-31T17:10:41.695Z,16.60
2019-03-31T17:13:19.466Z,16.40
2019-03-31T17:15:57.061Z,16.10
2019-03-31T17:18:34.844Z,15.90
2019-03-31T17:21:14.765Z,16.30
2019-03-31T17:26:27.472Z,15.90
2019-03-31T17:29:05.570Z,15.90
2019-03-31T17:31:43.144Z,15.70
2019-03-31T17:34:21.058Z,16.30
2019-03-31T17:36:58.787Z,15.70
2019-03-31T17:39:36.398Z,15.80
2019-03-31T17:42:13.911Z,16.00
2019-03-31T17:44:51.592Z,15.90
2019-03-31T17:47:29.299Z,15.30
2019-03-31T17:50:07.094Z,15.50
2019-03-31T17:52:44.667Z,15.70
2019-03-31T17:55:22.248Z,16.00
2019-03-31T18:03:55.513Z,16.00
2019-03-31T18:09:56.922Z,15.40
2019-03-31T18:12:34.778Z,15.60
2019-03-31T18:15:12.511Z,15.30
2019-03-31T18:20:25.163Z,15.00
2019-03-31T18:23:02.827Z,16.00
2019-03-31T18:25:40.431Z,15.60
2019-03-31T18:30:53.242Z,15.90
2019-03-31T18:33:30.851Z,15.60
2019-03-31T18:36:08.560Z,15.50
2019-03-31T18:38:46.148Z,15.10
2019-03-31T18:41:23.798Z,15.50
2019-03-31T18:44:02.127Z,16.00
2019-03-31T18:46:39.799Z,15.00
2019-03-31T18:49:17.467Z,15.70
2019-03-31T18:51:55.206Z,15.20
2019-03-31T18:54:41.866Z,14.90
2019-03-31T18:57:36.993Z,15.90
2019-03-31T19:00:29.342Z,14.80
2019-03-31T19:03:27.139Z,15.20
2019-03-31T19:06:20.415Z,15.70
2019-03-31T19:09:15.113Z,15.80
2019-03-31T19:12:04.956Z,15.00
2019-03-31T19:14:57.164Z,15.30
2019-03-31T19:17:55.425Z,15.80
2019-03-31T19:20:53.243Z,15.50
2019-03-31T19:26:57.976Z,15.70
2019-03-31T19:29:43.739Z,15.60
2019-03-31T19:32:28.285Z,15.60
2019-03-31T19:38:23.243Z,15.30
2019-03-31T19:41:18.965Z,14.70
2019-03-31T19:47:09.278Z,15.80
2019-03-31T19:50:05.113Z,15.70
2019-03-31T19:53:06.255Z,15.40
2019-03-31T19:56:07.456Z,15.40
2019-03-31T20:01:51.431Z,15.50
2019-03-31T20:04:47.196Z,14.80
2019-03-31T20:08:00.610Z,15.30
2019-03-31T20:13:35.188Z,15.10
2019-03-31T20:22:33.072Z,15.40
2019-03-31T20:25:16.448Z,15.00
2019-03-31T20:28:20.686Z,15.30
2019-03-31T20:40:03.535Z,14.90
2019-03-31T20:43:07.616Z,15.10
2019-03-31T20:56:05.683Z,14.80
2019-03-31T21:11:38.561Z,14.60
2019-03-31T21:14:16.054Z,15.00
2019-03-31T21:16:53.739Z,14.90
2019-03-31T21:19:31.402Z,15.40
2019-03-31T21:24:45.629Z,15.50
2019-03-31T21:29:58.334Z,15.50
2019-03-31T21:32:36.110Z,15.20
2019-03-31T21:37:49.133Z,15.00
2019-03-31T21:40:26.787Z,15.60
2019-03-31T21:43:04.483Z,14.90
2019-03-31T21:45:42.112Z,15.70
2019-03-31T21:50:55.020Z,15.30
2019-03-31T21:53:32.745Z,16.20
2019-03-31T21:56:10.803Z,15.40
2019-03-31T22:01:23.988Z,15.90
2019-03-31T22:06:36.725Z,16.40
2019-03-31T22:09:15.126Z,16.50
2019-03-31T22:14:27.805Z,16.70
2019-03-31T22:17:05.407Z,16.30
2019-03-31T22:19:43.068Z,16.30
2019-03-31T22:22:20.688Z,17.00
2019-03-31T22:24:58.359Z,16.30
2019-03-31T22:30:11.068Z,17.00
2019-03-31T22:35:23.688Z,17.30
2019-03-31T22:38:02.561Z,16.90
2019-03-31T22:40:40.123Z,17.20
2019-03-31T22:43:17.740Z,17.40
2019-03-31T22:45:55.345Z,17.50
2019-03-31T22:48:33.027Z,17.60
2019-03-31T22:51:10.781Z,17.70
2019-03-31T22:53:48.402Z,17.80
2019-03-31T22:56:27.814Z,17.90
2019-03-31T22:59:05.472Z,18.00
2019-03-31T23:01:43.214Z,17.90
2019-03-31T23:06:55.833Z,19.00
2019-03-31T23:12:09.928Z,18.20
2019-03-31T23:17:22.708Z,18.70
2019-03-31T23:20:00.444Z,18.40
2019-03-31T23:22:38.132Z,19.20
2019-03-31T23:27:50.839Z,18.70
2019-03-31T23:30:28.495Z,19.00
2019-03-31T23:33:06.186Z,19.00
2019-03-31T23:35:43.798Z,19.00
2019-03-31T23:38:21.419Z,19.00
2019-03-31T23:40:59.136Z,19.00
2019-03-31T23:43:36.869Z,19.00
2019-03-31T23:46:14.623Z,19.00
2019-03-31T23:48:52.218Z,19.00
2019-03-31T23:51:29.848Z,19.00
2019-03-31T23:54:07.512Z,18.90
2019-03-31T23:56:45.070Z,19.00
2019-03-31T23:59:22.643Z,19.00
